sensor_id;sensor_type;location;lat;lon;timestamp;temperature;humidity
19888;DHT22;10106;51.332;12.336;2023-04-03T00:00:04;2.00;99.90
19888;DHT22;10106;51.332;12.336;2023-04-03T00:02:30;2.00;99.90
19888;DHT22;10106;51.332;12.336;2023-04-03T00:04:56;2.00;99.90
19888;DHT22;10106;51.332;12.336;2023-04-03T00:07:22;1.90;99.90
19888;DHT22;10106;51.332;12.336;2023-04-03T00:09:47;1.90;99.90
19888;DHT22;10106;51.332;12.336;2023-04-03T00:12:13;1.90;99.90
19888;DHT22;10106;51.332;12.336;2023-04-03T00:14:39;1.90;99.90
19888;DHT22;10106;51.332;12.336;2023-04-03T00:17:05;1.90;99.90
19888;DHT22;10106;51.332;12.336;2023-04-03T00:19:31;1.80;99.90
19888;DHT22;10106;51.332;12.336;2023-04-03T00:21:56;1.80;99.90
19888;DHT22;10106;51.332;12.336;2023-04-03T00:24:22;1.80;99.90
19888;DHT22;10106;51.332;12.336;2023-04-03T00:26:48;1.80;99.90
19888;DHT22;10106;51.332;12.336;2023-04-03T00:29:14;1.80;99.90
19888;DHT22;10106;51.332;12.336;2023-04-03T00:31:40;1.80;99.90
19888;DHT22;10106;51.332;12.336;2023-04-03T00:34:06;1.80;99.90
19888;DHT22;10106;51.332;12.336;2023-04-03T00:36:31;1.80;99.90
19888;DHT22;10106;51.332;12.336;2023-04-03T00:38:57;1.80;99.90
19888;DHT22;10106;51.332;12.336;2023-04-03T00:41:23;1.70;99.90
19888;DHT22;10106;51.332;12.336;2023-04-03T00:43:48;1.70;99.90
19888;DHT22;10106;51.332;12.336;2023-04-03T00:46:14;1.60;99.90
19888;DHT22;10106;51.332;12.336;2023-04-03T00:48:45;1.60;99.90
19888;DHT22;10106;51.332;12.336;2023-04-03T00:51:13;1.50;99.90
19888;DHT22;10106;51.332;12.336;2023-04-03T00:53:44;1.50;99.90
19888;DHT22;10106;51.332;12.336;2023-04-03T00:56:13;1.40;99.90
19888;DHT22;10106;51.332;12.336;2023-04-03T01:01:20;1.30;99.90
19888;DHT22;10106;51.332;12.336;2023-04-03T01:03:47;1.30;99.90
19888;DHT22;10106;51.332;12.336;2023-04-03T01:06:12;1.30;99.90
19888;DHT22;10106;51.332;12.336;2023-04-03T01:08:39;1.30;99.90
19888;DHT22;10106;51.332;12.336;2023-04-03T01:11:04;1.20;99.90
19888;DHT22;10106;51.332;12.336;2023-04-03T01:13:32;1.20;99.90
19888;DHT22;10106;51.332;12.336;2023-04-03T01:16:03;1.10;99.90
19888;DHT22;10106;51.332;12.336;2023-04-03T01:18:30;1.10;99.90
19888;DHT22;10106;51.332;12.336;2023-04-03T01:26:11;0.90;99.90
19888;DHT22;10106;51.332;12.336;2023-04-03T01:28:37;0.90;99.90
19888;DHT22;10106;51.332;12.336;2023-04-03T01:33:48;0.80;99.90
19888;DHT22;10106;51.332;12.336;2023-04-03T01:36:21;0.70;99.90
19888;DHT22;10106;51.332;12.336;2023-04-03T01:38:48;0.70;99.90
19888;DHT22;10106;51.332;12.336;2023-04-03T01:41:13;0.60;99.90
19888;DHT22;10106;51.332;12.336;2023-04-03T01:43:40;0.60;99.90
19888;DHT22;10106;51.332;12.336;2023-04-03T01:46:06;0.60;99.90
19888;DHT22;10106;51.332;12.336;2023-04-03T01:48:33;0.50;99.90
19888;DHT22;10106;51.332;12.336;2023-04-03T01:50:59;0.50;99.90
19888;DHT22;10106;51.332;12.336;2023-04-03T01:53:25;0.50;99.90
19888;DHT22;10106;51.332;12.336;2023-04-03T01:55:50;0.50;99.90
19888;DHT22;10106;51.332;12.336;2023-04-03T01:58:16;0.50;99.90
19888;DHT22;10106;51.332;12.336;2023-04-03T02:00:42;0.40;99.90
19888;DHT22;10106;51.332;12.336;2023-04-03T02:03:08;0.40;99.90
19888;DHT22;10106;51.332;12.336;2023-04-03T02:05:35;0.40;99.90
19888;DHT22;10106;51.332;12.336;2023-04-03T02:08:01;0.40;99.90
19888;DHT22;10106;51.332;12.336;2023-04-03T02:10:26;0.40;99.90
19888;DHT22;10106;51.332;12.336;2023-04-03T02:12:52;0.40;99.90
19888;DHT22;10106;51.332;12.336;2023-04-03T02:15:18;0.40;99.90
19888;DHT22;10106;51.332;12.336;2023-04-03T02:17:43;0.40;99.90
19888;DHT22;10106;51.332;12.336;2023-04-03T02:20:09;0.40;99.90
19888;DHT22;10106;51.332;12.336;2023-04-03T02:22:36;0.40;99.90
19888;DHT22;10106;51.332;12.336;2023-04-03T02:25:01;0.40;99.90
19888;DHT22;10106;51.332;12.336;2023-04-03T02:27:27;0.40;99.90
19888;DHT22;10106;51.332;12.336;2023-04-03T02:29:53;0.40;99.90
19888;DHT22;10106;51.332;12.336;2023-04-03T02:32:18;0.40;99.90
19888;DHT22;10106;51.332;12.336;2023-04-03T02:34:44;0.30;99.90
19888;DHT22;10106;51.332;12.336;2023-04-03T02:37:11;0.30;99.90
19888;DHT22;10106;51.332;12.336;2023-04-03T02:39:37;0.30;99.90
19888;DHT22;10106;51.332;12.336;2023-04-03T02:42:03;0.30;99.90
19888;DHT22;10106;51.332;12.336;2023-04-03T02:44:28;0.20;99.90
19888;DHT22;10106;51.332;12.336;2023-04-03T02:46:54;0.20;99.90
19888;DHT22;10106;51.332;12.336;2023-04-03T02:49:20;0.20;99.90
19888;DHT22;10106;51.332;12.336;2023-04-03T02:51:45;0.10;99.90
19888;DHT22;10106;51.332;12.336;2023-04-03T02:54:11;0.10;99.90
19888;DHT22;10106;51.332;12.336;2023-04-03T02:56:37;0.10;99.90
19888;DHT22;10106;51.332;12.336;2023-04-03T02:59:03;0.00;99.90
19888;DHT22;10106;51.332;12.336;2023-04-03T03:01:28;0.00;99.90
19888;DHT22;10106;51.332;12.336;2023-04-03T03:03:57;-0.10;99.90
19888;DHT22;10106;51.332;12.336;2023-04-03T03:06:23;-0.10;99.90
19888;DHT22;10106;51.332;12.336;2023-04-03T03:08:49;-0.20;99.90
19888;DHT22;10106;51.332;12.336;2023-04-03T03:11:15;-0.20;99.90
19888;DHT22;10106;51.332;12.336;2023-04-03T03:13:41;-0.30;99.90
19888;DHT22;10106;51.332;12.336;2023-04-03T03:16:07;-0.30;99.90
19888;DHT22;10106;51.332;12.336;2023-04-03T03:18:33;-0.40;99.90
19888;DHT22;10106;51.332;12.336;2023-04-03T03:21:01;-0.50;99.90
19888;DHT22;10106;51.332;12.336;2023-04-03T03:23:28;-0.50;99.90
19888;DHT22;10106;51.332;12.336;2023-04-03T03:26:15;-0.50;99.90
19888;DHT22;10106;51.332;12.336;2023-04-03T03:28:41;-0.60;99.90
19888;DHT22;10106;51.332;12.336;2023-04-03T03:31:08;-0.60;99.90
19888;DHT22;10106;51.332;12.336;2023-04-03T03:33:34;-0.60;99.90
19888;DHT22;10106;51.332;12.336;2023-04-03T03:36:00;-0.70;99.90
19888;DHT22;10106;51.332;12.336;2023-04-03T03:38:25;-0.70;99.90
19888;DHT22;10106;51.332;12.336;2023-04-03T03:40:52;-0.80;99.90
19888;DHT22;10106;51.332;12.336;2023-04-03T03:43:18;-0.80;99.90
19888;DHT22;10106;51.332;12.336;2023-04-03T03:45:44;-0.80;99.90
19888;DHT22;10106;51.332;12.336;2023-04-03T03:50:38;-0.80;99.90
19888;DHT22;10106;51.332;12.336;2023-04-03T03:53:03;-0.80;99.90
19888;DHT22;10106;51.332;12.336;2023-04-03T03:55:29;-0.80;99.90
19888;DHT22;10106;51.332;12.336;2023-04-03T03:57:55;-0.90;99.90
19888;DHT22;10106;51.332;12.336;2023-04-03T04:00:21;-0.90;99.90
19888;DHT22;10106;51.332;12.336;2023-04-03T04:02:46;-0.90;99.90
19888;DHT22;10106;51.332;12.336;2023-04-03T04:05:12;-1.00;99.90
19888;DHT22;10106;51.332;12.336;2023-04-03T04:07:38;-1.00;99.90
19888;DHT22;10106;51.332;12.336;2023-04-03T04:10:04;-1.10;99.90
19888;DHT22;10106;51.332;12.336;2023-04-03T04:12:30;-1.10;99.90
19888;DHT22;10106;51.332;12.336;2023-04-03T04:14:56;-1.10;99.90
19888;DHT22;10106;51.332;12.336;2023-04-03T04:17:22;-1.20;99.90
19888;DHT22;10106;51.332;12.336;2023-04-03T04:19:47;-1.20;99.90
19888;DHT22;10106;51.332;12.336;2023-04-03T04:22:13;-1.20;99.90
19888;DHT22;10106;51.332;12.336;2023-04-03T04:24:39;-1.20;99.90
19888;DHT22;10106;51.332;12.336;2023-04-03T04:27:04;-1.20;99.90
19888;DHT22;10106;51.332;12.336;2023-04-03T04:29:30;-1.20;99.90
19888;DHT22;10106;51.332;12.336;2023-04-03T04:32:04;-1.20;99.90
19888;DHT22;10106;51.332;12.336;2023-04-03T04:34:29;-1.30;99.90
19888;DHT22;10106;51.332;12.336;2023-04-03T04:36:55;-1.20;99.90
19888;DHT22;10106;51.332;12.336;2023-04-03T04:39:21;-1.20;99.90
19888;DHT22;10106;51.332;12.336;2023-04-03T04:41:47;-1.20;99.90
19888;DHT22;10106;51.332;12.336;2023-04-03T04:44:13;-1.20;99.90
19888;DHT22;10106;51.332;12.336;2023-04-03T04:46:38;-1.20;99.90
19888;DHT22;10106;51.332;12.336;2023-04-03T04:49:04;-1.20;99.90
19888;DHT22;10106;51.332;12.336;2023-04-03T04:51:31;-1.20;99.90
19888;DHT22;10106;51.332;12.336;2023-04-03T04:53:56;-1.20;99.90
19888;DHT22;10106;51.332;12.336;2023-04-03T04:56:22;-1.20;99.90
19888;DHT22;10106;51.332;12.336;2023-04-03T04:58:47;-1.10;99.90
19888;DHT22;10106;51.332;12.336;2023-04-03T05:06:24;-0.90;99.90
19888;DHT22;10106;51.332;12.336;2023-04-03T05:08:50;-0.80;99.90
19888;DHT22;10106;51.332;12.336;2023-04-03T05:11:15;-0.70;99.90
19888;DHT22;10106;51.332;12.336;2023-04-03T05:13:41;-0.60;99.90
19888;DHT22;10106;51.332;12.336;2023-04-03T05:16:07;-0.50;99.90
19888;DHT22;10106;51.332;12.336;2023-04-03T05:18:32;-0.40;99.90
19888;DHT22;10106;51.332;12.336;2023-04-03T05:20:58;-0.30;99.90
19888;DHT22;10106;51.332;12.336;2023-04-03T05:23:24;-0.10;99.90
19888;DHT22;10106;51.332;12.336;2023-04-03T05:25:50;0.30;99.90
19888;DHT22;10106;51.332;12.336;2023-04-03T05:28:16;0.80;99.90
19888;DHT22;10106;51.332;12.336;2023-04-03T05:30:54;1.50;99.90
19888;DHT22;10106;51.332;12.336;2023-04-03T05:33:31;1.90;99.90
19888;DHT22;10106;51.332;12.336;2023-04-03T05:36:03;2.10;99.90
19888;DHT22;10106;51.332;12.336;2023-04-03T05:38:29;2.30;99.90
19888;DHT22;10106;51.332;12.336;2023-04-03T05:40:55;2.70;99.90
19888;DHT22;10106;51.332;12.336;2023-04-03T05:43:20;3.00;99.90
19888;DHT22;10106;51.332;12.336;2023-04-03T05:45:47;3.70;99.90
19888;DHT22;10106;51.332;12.336;2023-04-03T05:48:13;4.50;99.90
19888;DHT22;10106;51.332;12.336;2023-04-03T05:50:39;4.90;99.90
19888;DHT22;10106;51.332;12.336;2023-04-03T05:53:09;5.70;99.90
19888;DHT22;10106;51.332;12.336;2023-04-03T05:55:39;6.40;99.90
19888;DHT22;10106;51.332;12.336;2023-04-03T05:58:05;6.70;99.90
19888;DHT22;10106;51.332;12.336;2023-04-03T06:00:30;7.50;99.90
19888;DHT22;10106;51.332;12.336;2023-04-03T06:02:57;8.20;99.90
19888;DHT22;10106;51.332;12.336;2023-04-03T06:05:22;8.30;99.90
19888;DHT22;10106;51.332;12.336;2023-04-03T06:07:49;8.60;99.90
19888;DHT22;10106;51.332;12.336;2023-04-03T06:10:15;8.50;99.90
19888;DHT22;10106;51.332;12.336;2023-04-03T06:12:41;8.60;99.80
19888;DHT22;10106;51.332;12.336;2023-04-03T06:15:07;8.70;99.50
19888;DHT22;10106;51.332;12.336;2023-04-03T06:17:36;8.70;97.90
19888;DHT22;10106;51.332;12.336;2023-04-03T06:20:03;8.00;98.00
19888;DHT22;10106;51.332;12.336;2023-04-03T06:22:29;7.80;99.30
19888;DHT22;10106;51.332;12.336;2023-04-03T06:24:56;7.80;98.60
19888;DHT22;10106;51.332;12.336;2023-04-03T06:27:22;7.70;99.00
19888;DHT22;10106;51.332;12.336;2023-04-03T06:29:48;8.00;98.80
19888;DHT22;10106;51.332;12.336;2023-04-03T06:32:15;8.80;97.50
19888;DHT22;10106;51.332;12.336;2023-04-03T06:34:43;8.50;97.20
19888;DHT22;10106;51.332;12.336;2023-04-03T06:37:20;9.30;97.30
19888;DHT22;10106;51.332;12.336;2023-04-03T06:39:47;9.30;95.90
19888;DHT22;10106;51.332;12.336;2023-04-03T06:42:13;9.90;94.60
19888;DHT22;10106;51.332;12.336;2023-04-03T06:44:39;10.60;92.70
19888;DHT22;10106;51.332;12.336;2023-04-03T06:47:05;10.00;92.50
19888;DHT22;10106;51.332;12.336;2023-04-03T06:49:31;10.30;91.70
19888;DHT22;10106;51.332;12.336;2023-04-03T06:51:57;10.30;91.70
19888;DHT22;10106;51.332;12.336;2023-04-03T06:54:33;10.50;91.20
19888;DHT22;10106;51.332;12.336;2023-04-03T06:56:59;10.30;90.90
19888;DHT22;10106;51.332;12.336;2023-04-03T06:59:25;10.80;89.90
19888;DHT22;10106;51.332;12.336;2023-04-03T07:01:51;10.80;88.00
19888;DHT22;10106;51.332;12.336;2023-04-03T07:04:17;10.40;88.60
19888;DHT22;10106;51.332;12.336;2023-04-03T07:06:46;11.60;87.00
19888;DHT22;10106;51.332;12.336;2023-04-03T07:09:13;11.90;81.70
19888;DHT22;10106;51.332;12.336;2023-04-03T07:11:39;12.30;82.60
19888;DHT22;10106;51.332;12.336;2023-04-03T07:14:05;13.00;78.60
19888;DHT22;10106;51.332;12.336;2023-04-03T07:16:33;13.60;74.90
19888;DHT22;10106;51.332;12.336;2023-04-03T07:19:00;13.30;71.80
19888;DHT22;10106;51.332;12.336;2023-04-03T07:23:52;11.50;72.20
19888;DHT22;10106;51.332;12.336;2023-04-03T07:26:17;11.90;73.60
19888;DHT22;10106;51.332;12.336;2023-04-03T07:28:43;12.60;71.00
19888;DHT22;10106;51.332;12.336;2023-04-03T07:31:13;13.10;68.80
19888;DHT22;10106;51.332;12.336;2023-04-03T07:33:40;12.80;67.50
19888;DHT22;10106;51.332;12.336;2023-04-03T07:36:06;12.90;68.50
19888;DHT22;10106;51.332;12.336;2023-04-03T07:38:42;13.30;67.00
19888;DHT22;10106;51.332;12.336;2023-04-03T07:41:13;11.70;67.10
19888;DHT22;10106;51.332;12.336;2023-04-03T07:43:39;12.30;67.20
19888;DHT22;10106;51.332;12.336;2023-04-03T07:46:06;12.50;68.00
19888;DHT22;10106;51.332;12.336;2023-04-03T07:48:32;13.00;65.50
19888;DHT22;10106;51.332;12.336;2023-04-03T07:51:02;13.20;65.10
19888;DHT22;10106;51.332;12.336;2023-04-03T07:53:29;13.00;64.80
19888;DHT22;10106;51.332;12.336;2023-04-03T07:55:59;12.50;66.20
19888;DHT22;10106;51.332;12.336;2023-04-03T07:58:25;12.70;66.10
19888;DHT22;10106;51.332;12.336;2023-04-03T08:00:51;12.40;65.40
19888;DHT22;10106;51.332;12.336;2023-04-03T08:03:17;12.00;65.40
19888;DHT22;10106;51.332;12.336;2023-04-03T08:05:45;12.30;63.40
19888;DHT22;10106;51.332;12.336;2023-04-03T08:08:20;12.00;65.20
19888;DHT22;10106;51.332;12.336;2023-04-03T08:10:53;12.90;62.70
19888;DHT22;10106;51.332;12.336;2023-04-03T08:13:20;12.20;63.00
19888;DHT22;10106;51.332;12.336;2023-04-03T08:15:46;10.10;65.60
19888;DHT22;10106;51.332;12.336;2023-04-03T08:18:14;8.90;70.40
19888;DHT22;10106;51.332;12.336;2023-04-03T08:20:40;8.10;72.50
19888;DHT22;10106;51.332;12.336;2023-04-03T08:23:07;8.70;75.10
19888;DHT22;10106;51.332;12.336;2023-04-03T08:25:37;8.80;74.30
19888;DHT22;10106;51.332;12.336;2023-04-03T08:28:03;10.90;71.40
19888;DHT22;10106;51.332;12.336;2023-04-03T08:30:29;11.00;68.20
19888;DHT22;10106;51.332;12.336;2023-04-03T08:32:55;13.10;66.10
19888;DHT22;10106;51.332;12.336;2023-04-03T08:35:20;15.10;62.40
19888;DHT22;10106;51.332;12.336;2023-04-03T08:37:46;16.50;58.00
19888;DHT22;10106;51.332;12.336;2023-04-03T08:40:16;16.90;57.60
19888;DHT22;10106;51.332;12.336;2023-04-03T08:43:18;17.60;53.30
19888;DHT22;10106;51.332;12.336;2023-04-03T08:45:55;16.00;54.70
19888;DHT22;10106;51.332;12.336;2023-04-03T08:48:34;15.90;55.40
19888;DHT22;10106;51.332;12.336;2023-04-03T08:53:33;11.60;55.00
19888;DHT22;10106;51.332;12.336;2023-04-03T08:56:07;10.50;57.90
19888;DHT22;10106;51.332;12.336;2023-04-03T08:58:44;8.80;62.10
19888;DHT22;10106;51.332;12.336;2023-04-03T09:03:47;6.70;70.40
19888;DHT22;10106;51.332;12.336;2023-04-03T09:06:21;7.80;70.40
19888;DHT22;10106;51.332;12.336;2023-04-03T09:19:51;13.90;54.00
19888;DHT22;10106;51.332;12.336;2023-04-03T09:22:27;13.50;52.30
19888;DHT22;10106;51.332;12.336;2023-04-03T09:27:41;13.30;52.20
19888;DHT22;10106;51.332;12.336;2023-04-03T09:30:16;14.40;51.70
19888;DHT22;10106;51.332;12.336;2023-04-03T09:32:45;14.50;52.10
19888;DHT22;10106;51.332;12.336;2023-04-03T09:37:49;15.10;52.20
19888;DHT22;10106;51.332;12.336;2023-04-03T09:42:58;13.40;52.90
19888;DHT22;10106;51.332;12.336;2023-04-03T09:45:28;14.20;52.20
19888;DHT22;10106;51.332;12.336;2023-04-03T09:50:34;12.80;49.40
19888;DHT22;10106;51.332;12.336;2023-04-03T09:53:24;11.70;50.70
19888;DHT22;10106;51.332;12.336;2023-04-03T09:55:52;12.20;53.50
19888;DHT22;10106;51.332;12.336;2023-04-03T09:58:38;13.50;51.10
19888;DHT22;10106;51.332;12.336;2023-04-03T10:01:05;14.50;50.00
19888;DHT22;10106;51.332;12.336;2023-04-03T10:03:36;14.30;50.60
19888;DHT22;10106;51.332;12.336;2023-04-03T10:06:24;14.70;50.10
19888;DHT22;10106;51.332;12.336;2023-04-03T10:09:01;12.90;49.70
19888;DHT22;10106;51.332;12.336;2023-04-03T10:11:30;11.40;51.60
19888;DHT22;10106;51.332;12.336;2023-04-03T10:14:01;10.30;53.00
19888;DHT22;10106;51.332;12.336;2023-04-03T10:16:49;9.40;55.00
19888;DHT22;10106;51.332;12.336;2023-04-03T10:19:41;8.20;56.00
19888;DHT22;10106;51.332;12.336;2023-04-03T10:25:15;7.40;58.10
19888;DHT22;10106;51.332;12.336;2023-04-03T10:28:10;7.30;59.10
19888;DHT22;10106;51.332;12.336;2023-04-03T10:30:58;6.90;60.00
19888;DHT22;10106;51.332;12.336;2023-04-03T10:47:47;6.20;61.10
19888;DHT22;10106;51.332;12.336;2023-04-03T10:50:38;6.20;61.50
19888;DHT22;10106;51.332;12.336;2023-04-03T10:53:31;6.40;63.10
19888;DHT22;10106;51.332;12.336;2023-04-03T10:58:49;7.60;64.60
19888;DHT22;10106;51.332;12.336;2023-04-03T11:01:20;7.50;62.70
19888;DHT22;10106;51.332;12.336;2023-04-03T11:03:53;7.60;63.30
19888;DHT22;10106;51.332;12.336;2023-04-03T11:06:21;7.70;63.40
19888;DHT22;10106;51.332;12.336;2023-04-03T11:11:22;8.00;61.40
19888;DHT22;10106;51.332;12.336;2023-04-03T11:14:02;8.20;60.80
19888;DHT22;10106;51.332;12.336;2023-04-03T11:16:41;7.70;60.80
19888;DHT22;10106;51.332;12.336;2023-04-03T11:19:20;7.20;61.20
19888;DHT22;10106;51.332;12.336;2023-04-03T11:22:04;7.10;60.20
19888;DHT22;10106;51.332;12.336;2023-04-03T11:24:38;7.00;60.60
19888;DHT22;10106;51.332;12.336;2023-04-03T11:27:05;7.00;60.70
19888;DHT22;10106;51.332;12.336;2023-04-03T11:29:38;7.30;61.40
19888;DHT22;10106;51.332;12.336;2023-04-03T11:32:34;7.60;61.70
19888;DHT22;10106;51.332;12.336;2023-04-03T11:35:08;7.50;61.90
19888;DHT22;10106;51.332;12.336;2023-04-03T11:37:41;7.30;62.20
19888;DHT22;10106;51.332;12.336;2023-04-03T11:42:46;7.10;61.10
19888;DHT22;10106;51.332;12.336;2023-04-03T11:47:47;7.30;60.90
19888;DHT22;10106;51.332;12.336;2023-04-03T12:03:33;7.00;62.90
19888;DHT22;10106;51.332;12.336;2023-04-03T12:13:40;7.00;63.40
19888;DHT22;10106;51.332;12.336;2023-04-03T12:21:20;6.40;63.40
19888;DHT22;10106;51.332;12.336;2023-04-03T12:26:48;6.80;63.80
19888;DHT22;10106;51.332;12.336;2023-04-03T12:29:43;7.20;62.70
19888;DHT22;10106;51.332;12.336;2023-04-03T12:48:32;7.00;62.50
19888;DHT22;10106;51.332;12.336;2023-04-03T12:50:59;6.90;62.70
19888;DHT22;10106;51.332;12.336;2023-04-03T12:53:36;7.00;64.50
19888;DHT22;10106;51.332;12.336;2023-04-03T12:56:31;7.00;64.60
19888;DHT22;10106;51.332;12.336;2023-04-03T12:59:24;7.10;65.50
19888;DHT22;10106;51.332;12.336;2023-04-03T13:01:58;7.20;65.70
19888;DHT22;10106;51.332;12.336;2023-04-03T13:04:26;7.20;64.60
19888;DHT22;10106;51.332;12.336;2023-04-03T13:06:52;7.10;64.50
19888;DHT22;10106;51.332;12.336;2023-04-03T13:09:22;7.40;65.00
19888;DHT22;10106;51.332;12.336;2023-04-03T13:11:50;7.50;64.20
19888;DHT22;10106;51.332;12.336;2023-04-03T13:14:24;7.60;63.60
19888;DHT22;10106;51.332;12.336;2023-04-03T13:17:19;7.70;62.80
19888;DHT22;10106;51.332;12.336;2023-04-03T13:19:46;7.50;62.40
19888;DHT22;10106;51.332;12.336;2023-04-03T13:22:29;7.30;64.40
19888;DHT22;10106;51.332;12.336;2023-04-03T13:24:58;7.10;64.80
19888;DHT22;10106;51.332;12.336;2023-04-03T13:27:25;7.00;64.40
19888;DHT22;10106;51.332;12.336;2023-04-03T13:29:57;7.00;64.70
19888;DHT22;10106;51.332;12.336;2023-04-03T13:32:25;7.00;64.50
19888;DHT22;10106;51.332;12.336;2023-04-03T13:34:51;6.90;63.60
19888;DHT22;10106;51.332;12.336;2023-04-03T13:37:21;6.80;63.90
19888;DHT22;10106;51.332;12.336;2023-04-03T13:39:59;6.70;65.00
19888;DHT22;10106;51.332;12.336;2023-04-03T13:42:30;7.10;64.30
19888;DHT22;10106;51.332;12.336;2023-04-03T13:45:19;7.20;63.00
19888;DHT22;10106;51.332;12.336;2023-04-03T13:47:47;7.00;62.20
19888;DHT22;10106;51.332;12.336;2023-04-03T13:50:16;7.00;62.60
19888;DHT22;10106;51.332;12.336;2023-04-03T13:52:49;6.90;60.60
19888;DHT22;10106;51.332;12.336;2023-04-03T13:55:24;6.60;59.50
19888;DHT22;10106;51.332;12.336;2023-04-03T13:57:58;6.70;59.60
19888;DHT22;10106;51.332;12.336;2023-04-03T14:00:33;6.50;60.90
19888;DHT22;10106;51.332;12.336;2023-04-03T14:02:59;6.40;62.60
19888;DHT22;10106;51.332;12.336;2023-04-03T14:05:25;6.60;62.10
19888;DHT22;10106;51.332;12.336;2023-04-03T14:07:54;6.60;62.30
19888;DHT22;10106;51.332;12.336;2023-04-03T14:10:21;6.40;63.60
19888;DHT22;10106;51.332;12.336;2023-04-03T14:12:47;6.30;65.90
19888;DHT22;10106;51.332;12.336;2023-04-03T14:15:20;6.10;66.80
19888;DHT22;10106;51.332;12.336;2023-04-03T14:17:46;5.90;68.10
19888;DHT22;10106;51.332;12.336;2023-04-03T14:20:20;5.70;68.00
19888;DHT22;10106;51.332;12.336;2023-04-03T14:22:47;5.70;69.20
19888;DHT22;10106;51.332;12.336;2023-04-03T14:25:15;5.70;69.30
19888;DHT22;10106;51.332;12.336;2023-04-03T14:27:47;5.80;68.60
19888;DHT22;10106;51.332;12.336;2023-04-03T14:30:19;5.60;67.50
19888;DHT22;10106;51.332;12.336;2023-04-03T14:32:46;5.50;68.10
19888;DHT22;10106;51.332;12.336;2023-04-03T14:35:13;5.50;67.70
19888;DHT22;10106;51.332;12.336;2023-04-03T14:37:38;5.40;67.20
19888;DHT22;10106;51.332;12.336;2023-04-03T14:40:05;5.40;68.00
19888;DHT22;10106;51.332;12.336;2023-04-03T14:42:34;5.50;68.20
19888;DHT22;10106;51.332;12.336;2023-04-03T14:45:10;5.60;68.80
19888;DHT22;10106;51.332;12.336;2023-04-03T14:47:45;5.70;68.90
19888;DHT22;10106;51.332;12.336;2023-04-03T14:50:21;5.60;67.40
19888;DHT22;10106;51.332;12.336;2023-04-03T14:52:48;5.60;68.00
19888;DHT22;10106;51.332;12.336;2023-04-03T14:55:16;5.60;68.00
19888;DHT22;10106;51.332;12.336;2023-04-03T14:57:43;5.50;66.50
19888;DHT22;10106;51.332;12.336;2023-04-03T15:00:20;5.30;66.10
19888;DHT22;10106;51.332;12.336;2023-04-03T15:02:46;5.20;67.10
19888;DHT22;10106;51.332;12.336;2023-04-03T15:05:13;5.20;66.60
19888;DHT22;10106;51.332;12.336;2023-04-03T15:07:50;5.20;67.00
19888;DHT22;10106;51.332;12.336;2023-04-03T15:10:24;5.30;68.10
19888;DHT22;10106;51.332;12.336;2023-04-03T15:12:54;5.30;68.00
19888;DHT22;10106;51.332;12.336;2023-04-03T15:15:22;5.30;67.30
19888;DHT22;10106;51.332;12.336;2023-04-03T15:17:53;5.20;66.00
19888;DHT22;10106;51.332;12.336;2023-04-03T15:20:22;5.00;66.70
19888;DHT22;10106;51.332;12.336;2023-04-03T15:22:49;5.00;67.20
19888;DHT22;10106;51.332;12.336;2023-04-03T15:25:15;4.90;67.20
19888;DHT22;10106;51.332;12.336;2023-04-03T15:27:44;4.70;66.50
19888;DHT22;10106;51.332;12.336;2023-04-03T15:30:15;4.80;67.60
19888;DHT22;10106;51.332;12.336;2023-04-03T15:32:41;4.80;67.70
19888;DHT22;10106;51.332;12.336;2023-04-03T15:35:07;4.80;67.90
19888;DHT22;10106;51.332;12.336;2023-04-03T15:37:33;4.80;67.80
19888;DHT22;10106;51.332;12.336;2023-04-03T15:39:59;4.80;68.20
19888;DHT22;10106;51.332;12.336;2023-04-03T15:42:25;4.70;68.40
19888;DHT22;10106;51.332;12.336;2023-04-03T15:44:51;4.70;68.40
19888;DHT22;10106;51.332;12.336;2023-04-03T15:47:16;4.70;69.00
19888;DHT22;10106;51.332;12.336;2023-04-03T15:49:42;4.70;69.70
19888;DHT22;10106;51.332;12.336;2023-04-03T15:52:08;4.70;69.60
19888;DHT22;10106;51.332;12.336;2023-04-03T15:54:34;4.50;69.70
19888;DHT22;10106;51.332;12.336;2023-04-03T15:57:02;4.50;70.10
19888;DHT22;10106;51.332;12.336;2023-04-03T15:59:28;4.50;70.50
19888;DHT22;10106;51.332;12.336;2023-04-03T16:01:56;4.50;70.40
19888;DHT22;10106;51.332;12.336;2023-04-03T16:04:21;4.50;71.40
19888;DHT22;10106;51.332;12.336;2023-04-03T16:06:49;4.40;70.90
19888;DHT22;10106;51.332;12.336;2023-04-03T16:09:15;4.30;69.90
19888;DHT22;10106;51.332;12.336;2023-04-03T16:11:41;4.30;70.10
19888;DHT22;10106;51.332;12.336;2023-04-03T16:14:07;4.30;69.80
19888;DHT22;10106;51.332;12.336;2023-04-03T16:16:33;4.40;70.10
19888;DHT22;10106;51.332;12.336;2023-04-03T16:18:59;4.40;70.70
19888;DHT22;10106;51.332;12.336;2023-04-03T16:21:24;4.40;69.90
19888;DHT22;10106;51.332;12.336;2023-04-03T16:23:52;4.40;69.90
19888;DHT22;10106;51.332;12.336;2023-04-03T16:26:20;4.30;69.70
19888;DHT22;10106;51.332;12.336;2023-04-03T16:28:46;4.30;70.50
19888;DHT22;10106;51.332;12.336;2023-04-03T16:31:12;4.30;71.10
19888;DHT22;10106;51.332;12.336;2023-04-03T16:33:38;4.30;71.50
19888;DHT22;10106;51.332;12.336;2023-04-03T16:36:04;4.30;72.00
19888;DHT22;10106;51.332;12.336;2023-04-03T16:38:30;4.30;71.90
19888;DHT22;10106;51.332;12.336;2023-04-03T16:40:56;4.30;72.30
19888;DHT22;10106;51.332;12.336;2023-04-03T16:43:25;4.30;72.70
19888;DHT22;10106;51.332;12.336;2023-04-03T16:45:51;4.20;73.00
19888;DHT22;10106;51.332;12.336;2023-04-03T16:48:17;4.20;73.60
19888;DHT22;10106;51.332;12.336;2023-04-03T16:50:46;4.10;74.20
19888;DHT22;10106;51.332;12.336;2023-04-03T16:53:16;4.00;75.00
19888;DHT22;10106;51.332;12.336;2023-04-03T16:55:41;4.00;75.60
19888;DHT22;10106;51.332;12.336;2023-04-03T16:58:07;4.00;75.70
19888;DHT22;10106;51.332;12.336;2023-04-03T17:00:34;4.00;76.20
19888;DHT22;10106;51.332;12.336;2023-04-03T17:03:01;4.00;76.60
19888;DHT22;10106;51.332;12.336;2023-04-03T17:05:27;3.90;76.80
19888;DHT22;10106;51.332;12.336;2023-04-03T17:07:53;3.90;77.60
19888;DHT22;10106;51.332;12.336;2023-04-03T17:10:19;3.90;78.50
19888;DHT22;10106;51.332;12.336;2023-04-03T17:12:45;3.90;78.40
19888;DHT22;10106;51.332;12.336;2023-04-03T17:15:11;3.90;78.30
19888;DHT22;10106;51.332;12.336;2023-04-03T17:17:37;3.90;78.20
19888;DHT22;10106;51.332;12.336;2023-04-03T17:20:03;3.80;78.40
19888;DHT22;10106;51.332;12.336;2023-04-03T17:22:29;3.80;78.40
19888;DHT22;10106;51.332;12.336;2023-04-03T17:24:56;3.80;79.30
19888;DHT22;10106;51.332;12.336;2023-04-03T17:27:22;3.80;79.50
19888;DHT22;10106;51.332;12.336;2023-04-03T17:29:48;3.80;80.10
19888;DHT22;10106;51.332;12.336;2023-04-03T17:32:13;3.80;80.80
19888;DHT22;10106;51.332;12.336;2023-04-03T17:34:40;3.80;81.30